Time,TemperatureF,DewpointF,PressureIn,WindDirection,WindDirectionDegrees,WindSpeedMPH,WindSpeedGustMPH,Humidity,HourlyPrecipIn,Conditions,Clouds,dailyrainin,SoftwareType,DateUTC
2013-02-23 00:00:00,46.6,43.7,29.58,SW,225,2.2,4.0,90,0.00,,,0.13,,2013-02-22 23:00:00,
2013-02-23 00:05:00,46.6,43.7,29.58,SSW,202,1.3,3.1,90,0.00,,,0.00,,2013-02-22 23:05:00,
2013-02-23 00:10:00,46.4,43.5,29.58,SSW,202,0.8,1.3,90,0.00,,,0.00,,2013-02-22 23:10:00,
2013-02-23 00:15:00,46.4,43.2,29.55,SSW,202,1.3,1.7,89,0.00,,,0.00,,2013-02-22 23:15:00,
2013-02-23 00:20:00,46.4,43.2,29.55,SW,225,0.8,4.0,89,0.00,,,0.00,,2013-02-22 23:20:00,
2013-02-23 00:25:00,46.4,43.2,29.58,SW,225,1.7,2.6,89,0.00,,,0.00,,2013-02-22 23:25:00,
2013-02-23 00:30:00,46.4,43.2,29.58,SSW,202,0.8,1.3,89,0.00,,,0.00,,2013-02-22 23:30:00,
2013-02-23 00:35:00,46.4,43.2,29.58,WSW,247,0.4,2.6,89,0.00,,,0.00,,2013-02-22 23:35:00,
2013-02-23 08:10:00,44.1,35.2,29.61,SE,135,1.3,2.6,71,0.00,,,0.00,,2013-02-23 07:10:00,
2013-02-23 08:14:00,44.1,35.2,29.58,SE,135,1.3,0.0,71,0.00,,,0.00,,2013-02-23 07:14:00,
2013-02-23 08:19:00,44.1,35.2,29.58,NE,45,1.7,4.0,71,0.00,,,0.00,,2013-02-23 07:19:00,
2013-02-23 08:25:00,44.2,35.1,29.58,NE,45,0.8,0.8,70,0.00,,,0.00,,2013-02-23 07:25:00,
2013-02-23 08:29:00,44.2,35.1,29.58,NE,45,0.8,0.8,70,0.00,,,0.00,,2013-02-23 07:29:00,
2013-02-23 08:35:00,44.2,34.7,29.58,North,0,1.7,4.4,69,0.00,,,0.00,,2013-02-23 07:35:00,
2013-02-23 08:40:00,44.6,33.8,29.58,NW,315,1.7,9.8,66,0.00,,,0.00,,2013-02-23 07:40:00,
2013-02-23 08:45:00,45.1,33.6,29.58,ENE,67,1.7,5.3,64,0.00,,,0.00,,2013-02-23 07:45:00,
2013-02-23 08:49:00,45.3,33.8,29.58,ENE,67,3.5,3.5,64,0.00,,,0.00,,2013-02-23 07:49:00,
2013-02-23 08:54:00,45.5,33.6,29.61,NW,315,2.2,2.2,63,0.00,,,0.00,,2013-02-23 07:54:00,
2013-02-23 09:00:00,45.5,32.7,29.61,NE,45,4.0,8.5,61,0.00,,,0.00,,2013-02-23 08:00:00,
2013-02-23 09:05:00,45.7,32.9,29.61,East,90,9.3,12.9,61,0.00,,,0.00,,2013-02-23 08:05:00,
2013-02-23 09:10:00,45.5,32.7,29.61,East,90,9.3,9.8,61,0.00,,,0.00,,2013-02-23 08:10:00,
2013-02-23 09:15:00,45.5,33.1,29.58,SE,135,9.3,15.6,62,0.00,,,0.00,,2013-02-23 08:15:00,
2013-02-23 09:20:00,45.7,33.6,29.58,SW,225,8.9,20.1,63,0.00,,,0.00,,2013-02-23 08:20:00,
2013-02-23 09:25:00,45.7,34.5,29.58,South,180,10.7,10.7,65,0.00,,,0.00,,2013-02-23 08:25:00,
2013-02-23 09:30:00,45.7,35.2,29.58,NE,45,10.7,10.7,67,0.00,,,0.00,,2013-02-23 08:30:00,
2013-02-23 09:35:00,45.7,35.2,29.61,SE,135,8.9,15.6,67,0.00,,,0.00,,2013-02-23 08:35:00,
2013-02-23 09:40:00,45.7,34.9,29.61,SE,135,8.5,14.3,66,0.02,,,0.02,,2013-02-23 08:40:00,
2013-02-23 09:45:00,45.7,36.3,29.61,SW,225,8.5,16.5,70,0.02,,,0.02,,2013-02-23 08:45:00,
2013-02-23 09:50:00,45.5,36.9,29.61,South,180,9.3,16.5,72,0.02,,,0.02,,2013-02-23 08:50:00,
2013-02-23 09:55:00,45.3,37.4,29.58,SE,135,10.7,14.7,74,0.02,,,0.02,,2013-02-23 08:55:00,
2013-02-23 10:00:00,45.1,37.6,29.58,SE,135,9.8,14.7,75,0.05,,,0.05,,2013-02-23 09:00:00,
2013-02-23 10:05:00,45.0,38.1,29.58,SE,135,7.1,10.7,77,0.00,,,0.05,,2013-02-23 09:05:00,
2013-02-23 10:15:00,44.8,38.7,29.58,SSW,202,6.7,9.3,79,0.02,,,0.07,,2013-02-23 09:15:00,
2013-02-23 10:20:00,44.8,38.7,29.58,SE,135,7.1,10.2,79,0.02,,,0.07,,2013-02-23 09:20:00,
2013-02-23 10:25:00,44.8,38.8,29.58,SSE,157,6.7,10.7,80,0.04,,,0.09,,2013-02-23 09:25:00,
2013-02-23 10:30:00,45.0,39.0,29.58,SE,135,8.0,10.2,80,0.04,,,0.09,,2013-02-23 09:30:00,
2013-02-23 10:35:00,45.3,39.4,29.55,East,90,7.1,12.5,80,0.04,,,0.09,,2013-02-23 09:35:00,
2013-02-23 10:40:00,45.5,39.6,29.55,East,90,8.5,12.5,80,0.04,,,0.09,,2013-02-23 09:40:00,
2013-02-23 10:45:00,45.7,39.7,29.55,East,90,9.3,16.5,80,0.04,,,0.09,,2013-02-23 09:45:00,
2013-02-23 10:50:00,45.9,39.9,29.55,SE,135,9.8,9.8,80,0.04,,,0.09,,2013-02-23 09:50:00,
2013-02-23 10:55:00,46.0,40.1,29.53,SE,135,9.8,9.8,80,0.04,,,0.09,,2013-02-23 09:55:00,
2013-02-23 11:00:00,46.2,40.3,29.53,SSE,157,9.3,12.5,80,0.04,,,0.09,,2013-02-23 10:00:00,
2013-02-23 11:05:00,46.4,40.8,29.53,South,180,11.1,12.9,81,0.02,,,0.11,,2013-02-23 10:05:00,
2013-02-23 11:10:00,46.6,41.0,29.53,SE,135,9.8,9.8,81,0.02,,,0.11,,2013-02-23 10:10:00,
2013-02-23 11:15:00,46.6,41.4,29.53,ESE,112,10.7,20.1,82,0.02,,,0.11,,2013-02-23 10:15:00,
2013-02-23 11:20:00,46.8,41.5,29.53,South,180,11.1,15.6,82,0.02,,,0.11,,2013-02-23 10:20:00,
2013-02-23 11:27:00,46.9,41.9,29.53,SE,135,11.1,15.2,83,0.07,,,0.16,,2013-02-23 10:27:00,
2013-02-23 11:48:00,47.1,42.8,29.50,South,180,14.3,14.3,85,0.16,,,0.25,,2013-02-23 10:48:00,
2013-02-23 11:58:00,46.9,42.6,29.50,SSE,157,14.7,19.2,85,0.20,,,0.29,,2013-02-23 10:58:00,
2013-02-23 12:03:00,47.1,43.0,29.50,SSE,157,12.0,20.1,86,0.05,,,0.33,,2013-02-23 11:03:00,
2013-02-23 12:08:00,47.3,43.2,29.50,SSE,157,14.3,18.3,86,0.09,,,0.37,,2013-02-23 11:08:00,
2013-02-23 12:13:00,47.3,43.2,29.47,SSE,157,15.2,16.1,86,0.16,,,0.44,,2013-02-23 11:13:00,
2013-02-23 12:18:00,47.5,43.7,29.47,SE,135,13.8,19.6,87,0.18,,,0.46,,2013-02-23 11:18:00,
2013-02-23 12:23:00,47.5,43.7,29.50,SSE,157,12.5,18.7,87,0.20,,,0.48,,2013-02-23 11:23:00,
2013-02-23 12:28:00,47.7,43.9,29.50,SSE,157,14.3,19.2,87,0.22,,,0.50,,2013-02-23 11:28:00,
2013-02-23 12:33:00,47.5,43.7,29.47,SE,135,12.5,12.5,87,0.27,,,0.55,,2013-02-23 11:33:00,
2013-02-23 12:38:00,47.7,44.2,29.47,SSE,157,12.5,16.1,88,0.29,,,0.57,,2013-02-23 11:38:00,
2013-02-23 12:43:00,47.7,44.2,29.44,SSW,202,12.5,13.8,88,0.33,,,0.61,,2013-02-23 11:43:00,
2013-02-23 12:48:00,47.7,44.2,29.44,SE,135,16.1,31.3,88,0.35,,,0.64,,2013-02-23 11:48:00,
2013-02-23 12:53:00,48.0,44.6,29.44,South,180,14.3,15.2,88,0.37,,,0.66,,2013-02-23 11:53:00,
2013-02-23 12:58:00,48.0,44.8,29.44,SSW,202,16.1,20.1,89,0.41,,,0.70,,2013-02-23 11:58:00,
2013-02-23 13:03:00,48.2,45.0,29.44,SE,135,13.4,15.2,89,0.05,,,0.75,,2013-02-23 12:03:00,
2013-02-23 13:08:00,48.4,45.1,29.44,ESE,112,14.3,19.6,89,0.07,,,0.77,,2013-02-23 12:08:00,
2013-02-23 13:13:00,48.6,45.7,29.44,ESE,112,15.2,22.8,90,0.14,,,0.84,,2013-02-23 12:13:00,
2013-02-23 13:18:00,48.6,46.0,29.44,SSE,157,13.8,16.1,91,0.20,,,0.90,,2013-02-23 12:18:00,
2013-02-23 13:23:00,48.7,46.2,29.44,ESE,112,16.1,16.5,91,0.25,,,0.95,,2013-02-23 12:23:00,
2013-02-23 13:28:00,48.7,46.4,29.44,East,90,14.3,23.2,92,0.31,,,1.00,,2013-02-23 12:28:00,
2013-02-23 13:33:00,48.9,46.6,29.44,South,180,16.5,18.7,92,0.39,,,1.09,,2013-02-23 12:33:00,
2013-02-23 13:38:00,49.1,47.1,29.44,SE,135,13.4,20.1,93,0.44,,,1.14,,2013-02-23 12:38:00,
2013-02-23 13:43:00,49.1,47.1,29.44,SSE,157,20.1,29.9,93,0.55,,,1.25,,2013-02-23 12:43:00,
2013-02-23 13:48:00,49.1,47.1,29.44,South,180,16.5,17.8,93,0.59,,,1.29,,2013-02-23 12:48:00,
2013-02-23 13:53:00,49.3,47.5,29.47,ESE,112,14.3,25.5,94,0.64,,,1.34,,2013-02-23 12:53:00,
2013-02-23 13:58:00,49.3,47.5,29.47,South,180,6.7,14.3,94,0.75,,,1.45,,2013-02-23 12:58:00,
2013-02-23 14:03:00,49.5,47.7,29.47,SW,225,5.8,12.5,94,0.13,,,1.58,,2013-02-23 13:03:00,
2013-02-23 14:08:00,49.5,47.7,29.47,SW,225,13.4,17.0,94,0.33,,,1.77,,2013-02-23 13:08:00,
2013-02-23 14:13:00,50.0,48.6,29.47,SSW,202,13.8,22.8,95,0.47,,,1.92,,2013-02-23 13:13:00,
2013-02-23 14:18:00,50.4,49.1,29.47,West,270,12.0,12.0,96,0.52,,,1.97,,2013-02-23 13:18:00,
2013-02-23 14:23:00,50.7,49.5,29.47,SW,225,15.6,24.6,96,0.54,,,1.99,,2013-02-23 13:23:00,
2013-02-23 14:28:00,50.9,49.5,29.47,SW,225,6.7,8.9,95,0.54,,,1.99,,2013-02-23 13:28:00,
2013-02-23 14:33:00,50.9,49.5,29.47,SSW,202,8.0,8.5,95,0.56,,,2.01,,2013-02-23 13:33:00,
2013-02-23 14:38:00,50.9,49.5,29.47,NNW,337,7.1,11.6,95,0.56,,,2.01,,2013-02-23 13:38:00,
2013-02-23 14:43:00,50.9,49.5,29.44,WNW,292,5.8,10.2,95,0.59,,,2.04,,2013-02-23 13:43:00,
2013-02-23 14:48:00,50.9,49.5,29.44,WNW,292,8.9,20.1,95,0.59,,,2.04,,2013-02-23 13:48:00,
2013-02-23 14:53:00,51.1,49.6,29.47,SW,225,10.2,21.4,95,0.61,,,2.06,,2013-02-23 13:53:00,
2013-02-23 14:58:00,51.1,49.6,29.47,North,0,8.0,15.6,95,0.61,,,2.06,,2013-02-23 13:58:00,
2013-02-23 15:03:00,51.1,49.6,29.47,SSW,202,6.2,11.1,95,0.00,,,2.06,,2013-02-23 14:03:00,
2013-02-23 15:08:00,51.1,49.6,29.47,SSW,202,5.3,11.1,95,0.00,,,2.06,,2013-02-23 14:08:00,
2013-02-23 15:13:00,51.1,49.6,29.44,WSW,247,5.3,13.4,95,0.00,,,2.06,,2013-02-23 14:13:00,
2013-02-23 15:18:00,51.1,49.6,29.44,SW,225,8.0,13.8,95,0.00,,,2.06,,2013-02-23 14:18:00,
2013-02-23 15:23:00,51.1,49.6,29.47,SSE,157,10.2,11.6,95,0.02,,,2.08,,2013-02-23 14:23:00,
2013-02-23 15:28:00,51.1,49.3,29.47,South,180,8.9,11.6,94,0.02,,,2.08,,2013-02-23 14:28:00,
2013-02-23 15:33:00,51.1,49.3,29.47,SSW,202,8.9,13.8,94,0.02,,,2.08,,2013-02-23 14:33:00,
2013-02-23 15:38:00,50.9,49.1,29.47,SW,225,7.6,8.9,94,0.04,,,2.10,,2013-02-23 14:38:00,
2013-02-23 15:43:00,50.7,48.9,29.44,WSW,247,7.6,10.7,94,0.04,,,2.10,,2013-02-23 14:43:00,
2013-02-23 15:48:00,50.5,48.7,29.44,SSE,157,6.7,15.6,94,0.04,,,2.10,,2013-02-23 14:48:00,
2013-02-23 15:53:00,50.5,48.7,29.47,East,90,8.5,12.9,94,0.06,,,2.12,,2013-02-23 14:53:00,
2013-02-23 15:58:00,50.4,48.6,29.47,SSW,202,9.3,15.2,94,0.06,,,2.12,,2013-02-23 14:58:00,
2013-02-23 16:03:00,50.4,48.6,29.47,SSW,202,9.3,15.2,94,0.06,,,2.12,,2013-02-23 15:03:00,
2013-02-23 16:08:00,50.2,48.4,29.44,NW,315,7.6,9.3,94,0.03,,,2.15,,2013-02-23 15:08:00,
2013-02-23 16:13:00,50.2,48.4,29.47,South,180,11.1,17.0,94,0.09,,,2.21,,2013-02-23 15:13:00,
2013-02-23 16:18:00,49.8,47.8,29.47,SSW,202,9.8,17.4,93,0.12,,,2.24,,2013-02-23 15:18:00,
2013-02-23 16:23:00,50.2,48.2,29.47,SW,225,14.3,22.8,93,0.12,,,2.24,,2013-02-23 15:23:00,
2013-02-23 16:28:00,50.4,48.4,29.47,South,180,4.9,10.2,93,0.12,,,2.24,,2013-02-23 15:28:00,
2013-02-23 16:33:00,50.4,48.4,29.47,NW,315,7.6,7.6,93,0.12,,,2.24,,2013-02-23 15:33:00,
2013-02-23 16:38:00,50.4,48.4,29.47,SSW,202,6.7,9.8,93,0.12,,,2.24,,2013-02-23 15:38:00,
2013-02-23 16:43:00,50.4,48.4,29.44,WSW,247,6.2,6.2,93,0.12,,,2.24,,2013-02-23 15:43:00,
2013-02-23 16:48:00,50.4,48.4,29.44,SE,135,4.9,9.3,93,0.12,,,2.24,,2013-02-23 15:48:00,
2013-02-23 16:53:00,50.4,48.6,29.44,SSE,157,9.8,16.5,94,0.12,,,2.24,,2013-02-23 15:53:00,
2013-02-23 16:58:00,50.4,48.6,29.44,West,270,10.7,13.4,94,0.16,,,2.28,,2013-02-23 15:58:00,
2013-02-23 17:03:00,49.6,47.7,29.50,SSE,157,12.5,18.7,93,0.04,,,2.31,,2013-02-23 16:03:00,
2013-02-23 17:08:00,49.8,47.5,29.50,WNW,292,8.5,9.8,92,0.04,,,2.31,,2013-02-23 16:08:00,
2013-02-23 17:13:00,49.8,47.5,29.47,WSW,247,7.1,8.5,92,0.04,,,2.31,,2013-02-23 16:13:00,
2013-02-23 17:18:00,49.6,47.3,29.47,NE,45,4.4,4.9,92,0.04,,,2.31,,2013-02-23 16:18:00,
2013-02-23 17:23:00,49.5,46.9,29.47,South,180,8.9,14.3,91,0.07,,,2.34,,2013-02-23 16:23:00,
2013-02-23 17:28:00,49.5,46.0,29.47,East,90,5.3,13.8,88,0.07,,,2.34,,2013-02-23 16:28:00,
2013-02-23 17:33:00,49.3,45.9,29.44,ENE,67,7.1,10.7,88,0.07,,,2.34,,2013-02-23 16:33:00,
2013-02-23 17:38:00,49.1,45.3,29.44,SSW,202,5.8,8.5,87,0.07,,,2.34,,2013-02-23 16:38:00,
2013-02-23 17:43:00,48.9,44.2,29.47,ENE,67,2.6,8.9,84,0.07,,,2.34,,2013-02-23 16:43:00,
2013-02-23 17:48:00,49.1,43.2,29.47,SW,225,6.7,10.7,80,0.07,,,2.34,,2013-02-23 16:48:00,
2013-02-23 17:53:00,49.1,42.4,29.47,WNW,292,4.4,5.3,78,0.07,,,2.34,,2013-02-23 16:53:00,
2013-02-23 17:58:00,49.1,42.4,29.47,NNE,22,5.3,5.3,78,0.07,,,2.34,,2013-02-23 16:58:00,
2013-02-23 18:03:00,48.7,41.7,29.47,SSE,157,8.0,9.3,77,0.00,,,2.34,,2013-02-23 17:03:00,
2013-02-23 18:08:00,48.6,41.9,29.47,SSE,157,6.2,17.8,78,0.00,,,2.34,,2013-02-23 17:08:00,
2013-02-23 18:13:00,48.2,41.9,29.47,SSW,202,8.0,8.0,79,0.00,,,2.34,,2013-02-23 17:13:00,
2013-02-23 18:18:00,48.0,42.4,29.47,WSW,247,6.2,20.1,81,0.00,,,2.34,,2013-02-23 17:18:00,
2013-02-23 18:23:00,48.0,43.0,29.50,SSE,157,5.3,10.2,83,0.00,,,2.34,,2013-02-23 17:23:00,
2013-02-23 18:28:00,48.0,43.3,29.50,SSW,202,4.0,6.7,84,0.00,,,2.34,,2013-02-23 17:28:00,
2013-02-23 18:33:00,47.8,43.5,29.50,SE,135,3.5,6.7,85,0.00,,,2.34,,2013-02-23 17:33:00,
2013-02-23 18:38:00,47.8,43.7,29.50,SW,225,8.9,8.9,86,0.00,,,2.34,,2013-02-23 17:38:00,
2013-02-23 18:43:00,47.8,44.1,29.50,NNW,337,4.4,4.4,87,0.00,,,2.34,,2013-02-23 17:43:00,
2013-02-23 18:48:00,47.8,44.4,29.50,South,180,4.9,8.5,88,0.00,,,2.34,,2013-02-23 17:48:00,
2013-02-23 18:53:00,48.0,44.6,29.53,SSW,202,1.7,1.7,88,0.00,,,2.34,,2013-02-23 17:53:00,
2013-02-23 18:58:00,48.0,44.6,29.53,South,180,6.2,6.2,88,0.00,,,2.34,,2013-02-23 17:58:00,
2013-02-23 19:03:00,48.0,44.6,29.53,South,180,6.2,6.2,88,0.00,,,2.34,,2013-02-23 18:03:00,
2013-02-23 19:08:00,48.4,45.1,29.50,SSW,202,6.2,10.2,89,0.00,,,2.34,,2013-02-23 18:08:00,
2013-02-23 19:13:00,48.6,45.3,29.53,ESE,112,6.2,9.8,89,0.00,,,2.34,,2013-02-23 18:13:00,
2013-02-23 19:18:00,48.6,45.3,29.53,SSW,202,7.1,16.1,89,0.00,,,2.34,,2013-02-23 18:18:00,
2013-02-23 19:23:00,48.6,45.1,29.53,NW,315,4.0,6.7,88,0.00,,,2.34,,2013-02-23 18:23:00,
2013-02-23 19:28:00,48.7,45.3,29.53,South,180,7.1,10.2,88,0.00,,,2.34,,2013-02-23 18:28:00,
2013-02-23 19:33:00,48.7,45.3,29.53,SE,135,7.6,14.7,88,0.00,,,2.34,,2013-02-23 18:33:00,
2013-02-23 19:38:00,48.7,45.3,29.53,South,180,5.3,10.2,88,0.00,,,2.34,,2013-02-23 18:38:00,
2013-02-23 19:43:00,48.9,45.7,29.53,South,180,6.2,7.6,89,0.00,,,2.34,,2013-02-23 18:43:00,
2013-02-23 19:48:00,48.9,45.7,29.53,South,180,5.3,11.1,89,0.00,,,2.34,,2013-02-23 18:48:00,
2013-02-23 19:53:00,49.1,45.9,29.53,SW,225,6.7,6.7,89,0.00,,,2.34,,2013-02-23 18:53:00,
2013-02-23 19:58:00,49.3,46.4,29.53,SSW,202,8.5,11.1,90,0.00,,,2.34,,2013-02-23 18:58:00,
2013-02-23 20:03:00,48.2,44.8,29.53,NNW,337,5.8,10.2,88,0.02,,,2.36,,2013-02-23 19:03:00,
2013-02-23 20:08:00,47.5,44.1,29.53,SW,225,9.8,13.4,88,0.04,,,2.38,,2013-02-23 19:08:00,
2013-02-23 20:13:00,47.1,43.7,29.53,SSW,202,4.9,4.9,88,0.04,,,2.38,,2013-02-23 19:13:00,
2013-02-23 20:18:00,46.9,43.7,29.53,West,270,4.4,12.9,89,0.04,,,2.38,,2013-02-23 19:18:00,
2013-02-23 20:23:00,46.9,44.1,29.55,SSW,202,7.1,10.2,90,0.04,,,2.38,,2013-02-23 19:23:00,
2013-02-23 20:28:00,46.8,44.2,29.55,SSW,202,5.8,5.8,91,0.04,,,2.38,,2013-02-23 19:28:00,
2013-02-23 20:33:00,46.8,44.2,29.55,WSW,247,4.9,6.2,91,0.04,,,2.38,,2013-02-23 19:33:00,
2013-02-23 20:38:00,46.6,43.7,29.55,WSW,247,2.6,4.9,90,0.04,,,2.38,,2013-02-23 19:38:00,
2013-02-23 20:43:00,46.4,43.5,29.55,SW,225,3.5,5.3,90,0.04,,,2.38,,2013-02-23 19:43:00,
2013-02-23 20:48:00,46.2,43.0,29.55,South,180,3.1,3.1,89,0.04,,,2.38,,2013-02-23 19:48:00,
2013-02-23 20:53:00,46.0,42.8,29.58,SW,225,2.6,5.8,89,0.04,,,2.38,,2013-02-23 19:53:00,
2013-02-23 20:58:00,45.9,42.8,29.58,SSW,202,2.6,2.6,89,0.04,,,2.38,,2013-02-23 19:58:00,
2013-02-23 21:03:00,45.7,41.9,29.58,SW,225,4.4,4.4,87,0.00,,,2.38,,2013-02-23 20:03:00,
2013-02-23 21:08:00,45.7,41.4,29.58,WSW,247,5.3,5.3,85,0.00,,,2.38,,2013-02-23 20:08:00,
2013-02-23 21:13:00,45.7,41.4,29.58,WSW,247,4.0,5.8,85,0.00,,,2.38,,2013-02-23 20:13:00,
2013-02-23 21:18:00,45.7,41.4,29.58,WSW,247,3.5,5.3,85,0.00,,,2.38,,2013-02-23 20:18:00,
2013-02-23 21:23:00,45.7,41.4,29.61,WSW,247,3.1,3.1,85,0.00,,,2.38,,2013-02-23 20:23:00,
2013-02-23 21:28:00,45.5,41.5,29.61,SSW,202,2.6,5.3,86,0.00,,,2.38,,2013-02-23 20:28:00,
2013-02-23 21:33:00,45.5,41.5,29.58,SW,225,3.1,4.0,86,0.00,,,2.38,,2013-02-23 20:33:00,
2013-02-23 21:38:00,45.3,41.4,29.58,SW,225,2.6,2.6,86,0.00,,,2.38,,2013-02-23 20:38:00,
2013-02-23 21:43:00,45.3,41.4,29.61,SSW,202,4.4,5.3,86,0.00,,,2.38,,2013-02-23 20:43:00,
2013-02-23 21:48:00,45.3,41.5,29.61,SW,225,3.5,4.9,87,0.00,,,2.38,,2013-02-23 20:48:00,
2013-02-23 21:53:00,45.3,41.5,29.61,SSW,202,1.7,2.6,87,0.00,,,2.38,,2013-02-23 20:53:00,
2013-02-23 21:58:00,45.1,41.4,29.61,SSW,202,3.5,10.7,87,0.00,,,2.38,,2013-02-23 20:58:00,
2013-02-23 22:03:00,45.1,41.4,29.61,SSW,202,3.5,10.7,87,0.00,,,2.38,,2013-02-23 21:03:00,
2013-02-23 22:08:00,45.1,41.4,29.61,WSW,247,2.2,4.4,87,0.00,,,2.38,,2013-02-23 21:08:00,
2013-02-23 22:13:00,45.1,41.2,29.61,SW,225,4.0,6.7,86,0.00,,,2.38,,2013-02-23 21:13:00,
2013-02-23 22:18:00,45.1,41.2,29.61,South,180,4.0,4.4,86,0.00,,,2.38,,2013-02-23 21:18:00,
2013-02-23 22:23:00,45.0,41.0,29.61,SSW,202,3.5,5.8,86,0.00,,,2.38,,2013-02-23 21:23:00,
2013-02-23 22:28:00,44.8,40.5,29.61,South,180,2.6,2.6,85,0.00,,,2.38,,2013-02-23 21:28:00,
2013-02-23 22:33:00,44.8,40.5,29.61,SW,225,3.5,5.8,85,0.00,,,2.38,,2013-02-23 21:33:00,
2013-02-23 22:38:00,44.6,39.9,29.61,SW,225,4.0,7.6,84,0.00,,,2.38,,2013-02-23 21:38:00,
2013-02-23 22:43:00,44.4,39.6,29.64,SW,225,4.9,7.6,83,0.00,,,2.38,,2013-02-23 21:43:00,
2013-02-23 22:48:00,44.4,39.6,29.64,SW,225,2.2,2.6,83,0.00,,,2.38,,2013-02-23 21:48:00,
2013-02-23 22:53:00,44.4,39.7,29.61,SW,225,3.5,3.5,84,0.00,,,2.38,,2013-02-23 21:53:00,
2013-02-23 22:58:00,44.4,39.6,29.61,West,270,4.0,5.8,83,0.00,,,2.38,,2013-02-23 21:58:00,
2013-02-23 23:03:00,44.2,39.4,29.64,SW,225,2.6,6.7,83,0.00,,,2.38,,2013-02-23 22:03:00,
2013-02-23 23:08:00,44.2,39.4,29.64,SW,225,3.1,6.7,83,0.00,,,2.38,,2013-02-23 22:08:00,
2013-02-23 23:13:00,44.2,39.4,29.61,SSW,202,0.8,0.8,83,0.00,,,2.38,,2013-02-23 22:13:00,
2013-02-23 23:18:00,44.2,39.4,29.61,West,270,3.5,6.2,83,0.00,,,2.38,,2013-02-23 22:18:00,
2013-02-23 23:23:00,44.2,39.4,29.64,SW,225,4.0,7.6,83,0.00,,,2.38,,2013-02-23 22:23:00,
2013-02-23 23:28:00,44.1,39.2,29.64,SW,225,3.5,5.3,83,0.00,,,2.38,,2013-02-23 22:28:00,
2013-02-23 23:33:00,44.1,39.2,29.67,SW,225,3.5,5.8,83,0.00,,,2.38,,2013-02-23 22:33:00,
2013-02-23 23:38:00,44.1,39.2,29.67,WSW,247,1.3,2.6,83,0.00,,,2.38,,2013-02-23 22:38:00,
2013-02-23 23:43:00,44.1,38.8,29.64,SSW,202,4.9,11.1,82,0.00,,,2.38,,2013-02-23 22:43:00,
2013-02-23 23:48:00,43.9,38.7,29.64,SSE,157,2.2,3.1,82,0.00,,,2.38,,2013-02-23 22:48:00,
2013-02-23 23:53:00,43.9,38.7,29.67,South,180,2.2,3.1,82,0.00,,,2.38,,2013-02-23 22:53:00,
2013-02-23 23:58:00,43.9,38.7,29.67,SSW,202,1.7,1.7,82,0.00,,,2.38,,2013-02-23 22:58:00,